Flight Track Log - Related Links

Times and Time Zones

All times are in EDT time to prevent confusion due to time zone crossing. See the SWA419 flight status page for this flight to view local times or setup timezone preferences in your user account.


Time Position Orientation Groundspeed Altitude Reporting Facility
EDT Latitude Longitude Course Direction KTS MPH feet Rate Location/Type
Fri 10:00:14 PM 39.8500 -104.7667 303° West 177 204 7,300  Level Denver TRACON
Fri 10:01:14 PM 39.8833 -104.8333 303° West 214 246 9,800 2,368 Climbing Denver TRACON
Fri 10:02:08 PM 39.9000 -104.8833 293° West 238 274 11,800 1,966 Climbing Denver TRACON
Fri 10:03:10 PM 39.9286 -105.0003 288° West 319 367 13,600 2,371 Climbing Denver Center
Fri 10:04:12 PM 39.9169 -105.1275 263° West 353 406 16,700 2,855 Climbing Denver Center
Fri 10:05:14 PM 39.9042 -105.2583 263° West 364 419 19,500 2,710 Climbing Denver Center
Fri 10:06:16 PM 39.8894 -105.4069 263° West 383 441 22,300 1,887 Climbing Denver Center
Fri 10:07:18 PM 39.8772 -105.5483 264° West 392 451 23,400 1,694 Climbing Denver Center
Fri 10:08:20 PM 39.8608 -105.7067 262° West 397 457 25,800 2,081 Climbing Denver Center
Fri 10:09:22 PM 39.8478 -105.8533 263° West 403 464 27,700 1,839 Climbing Denver Center
Fri 10:10:24 PM 39.8353 -106.0047 264° West 415 478 29,600 1,854 Climbing Denver Center
Fri 10:11:25 PM 39.8222 -106.1306 262° West 417 480 31,500 2,000 Climbing Denver Center
Fri 10:12:27 PM 39.8081 -106.3003 264° West 403 464 33,700 1,790 Climbing Denver Center
Fri 10:13:29 PM 39.7950 -106.4458 263° West 402 463 35,200 1,500 Climbing Denver Center
Fri 10:14:31 PM 39.7817 -106.6003 264° West 406 467 36,800 1,258 Climbing Denver Center
Fri 10:15:33 PM 39.7644 -106.7406 261° West 398 458 37,800 683 Climbing Denver Center
Fri 10:16:34 PM 39.7508 -106.8547 261° West 400 460 38,200 581 Climbing Denver Center
Fri 10:17:37 PM 39.7336 -107.0311 263° West 412 474 39,000 871 Climbing Denver Center
Fri 10:18:38 PM 39.7167 -107.1781 262° West 416 479 40,000 488 Climbing Denver Center
Fri 10:19:40 PM 39.6986 -107.3375 262° West 407 468 40,000  Level Denver Center
Fri 10:20:42 PM 39.6806 -107.4997 262° West 407 468 40,000  Level Denver Center
Fri 10:21:44 PM 39.6636 -107.6375 261° West 405 466 40,000  Level Denver Center
Fri 10:22:46 PM 39.6456 -107.7989 262° West 404 465 40,000  Level Denver Center
Fri 10:23:48 PM 39.6272 -107.9378 260° West 408 470 40,000  Level Denver Center
Fri 10:24:49 PM 39.6086 -108.0981 261° West 403 464 40,000  Level Denver Center
Fri 10:25:51 PM 39.5922 -108.2367 261° West 405 466 40,000  Level Denver Center
Fri 10:26:53 PM 39.5722 -108.3975 261° West 404 465 40,000  Level Denver Center
Fri 10:27:55 PM 39.5553 -108.5331 261° West 397 457 40,000  Level Denver Center
Fri 10:28:57 PM 39.5386 -108.6697 261° West 396 456 40,000  Level Denver Center
Fri 10:29:59 PM 39.5169 -108.8297 260° West 396 456 40,000  Level Denver Center
Fri 10:31:00 PM 39.4992 -108.9669 261° West 398 458 40,000  Level Denver Center
Fri 10:32:02 PM 39.4822 -109.1025 261° West 399 459 40,000  Level Denver Center
Fri 10:33:04 PM 39.4606 -109.2608 260° West 399 459 40,000  Level Denver Center
Fri 10:34:06 PM 39.4436 -109.3967 261° West 398 458 40,000  Level Denver Center
Fri 10:34:40 PM 39.4325 -109.4872 261° West 398 458 40,000  Level Salt Lake Center
Fri 10:35:42 PM 39.4144 -109.6217 260° West 398 458 40,000  Level Salt Lake Center
Fri 10:36:09 PM 39.4047 -109.6894 260° West 400 460 40,000  Level Denver Center
Fri 10:37:11 PM 39.3828 -109.8464 260° West 398 458 40,000  Level Denver Center
Fri 10:37:45 PM 39.3744 -109.9156 261° West 401 461 40,000  Level Salt Lake Center
Fri 10:38:47 PM 39.3519 -110.0725 260° West 399 459 40,000  Level Salt Lake Center
Fri 10:39:49 PM 39.3331 -110.2089 260° West 403 464 40,000  Level Salt Lake Center
Fri 10:40:50 PM 39.3142 -110.3453 260° West 403 464 40,000  Level Salt Lake Center
Fri 10:41:18 PM 39.3042 -110.4133 259° West 404 465 40,000  Level Denver Center
Fri 10:42:20 PM 39.2806 -110.5728 259° West 405 466 40,000  Level Denver Center
Fri 10:42:54 PM 39.2711 -110.6422 260° West 407 468 40,000  Level Salt Lake Center
Fri 10:43:55 PM 39.2497 -110.8025 260° West 405 466 40,000  Level Salt Lake Center
Fri 10:44:57 PM 39.2261 -110.9386 257° West 406 467 40,000  Level Salt Lake Center
Fri 10:45:58 PM 39.2044 -111.0958 260° West 401 461 40,000  Level Salt Lake Center
Fri 10:47:00 PM 39.1839 -111.2272 259° West 393 452 40,000  Level Salt Lake Center
Fri 10:48:02 PM 39.1656 -111.3697 261° West 392 451 40,000  Level Salt Lake Center
Fri 10:49:03 PM 39.1436 -111.5089 259° West 396 456 40,000  Level Salt Lake Center
Fri 10:50:05 PM 39.1214 -111.6508 259° West 405 466 40,000  Level Salt Lake Center
Fri 10:51:06 PM 39.0992 -111.7928 259° West 407 468 40,000  Level Salt Lake Center
Fri 10:52:08 PM 39.0775 -111.9339 259° West 404 465 40,000  Level Salt Lake Center
Fri 10:53:09 PM 39.0503 -112.1036 258° West 405 466 40,000  Level Salt Lake Center
Fri 10:54:11 PM 39.0281 -112.2444 259° West 404 465 40,000  Level Salt Lake Center
Fri 10:55:13 PM 39.0058 -112.3850 259° West 404 465 40,000  Level Salt Lake Center
Fri 10:56:14 PM 38.9831 -112.5272 258° West 407 468 40,000  Level Salt Lake Center
Fri 10:57:16 PM 38.9594 -112.6647 258° West 400 460 40,000  Level Salt Lake Center
Fri 10:58:17 PM 38.9367 -112.8056 258° West 404 465 40,000  Level Salt Lake Center
Fri 10:59:19 PM 38.9136 -112.9456 258° West 404 465 40,000  Level Salt Lake Center
Fri 11:00:20 PM 38.8861 -113.1114 258° West 400 460 40,000  Level Salt Lake Center
Fri 11:01:22 PM 38.8631 -113.2517 258° West 401 461 40,000  Level Salt Lake Center
Fri 11:02:23 PM 38.8386 -113.3894 257° West 396 456 40,000  Level Salt Lake Center
Fri 11:03:25 PM 38.8150 -113.5283 258° West 399 459 40,000  Level Salt Lake Center
Fri 11:04:26 PM 38.7917 -113.6672 258° West 401 461 40,000  Level Salt Lake Center
Fri 11:05:28 PM 38.7669 -113.8064 257° West 402 463 40,000  Level Salt Lake Center
Fri 11:06:29 PM 38.7431 -113.9456 258° West 401 461 40,000  Level Salt Lake Center
Fri 11:07:30 PM 38.7194 -114.0825 258° West 397 457 40,000  Level Salt Lake Center
Fri 11:08:32 PM 38.6894 -114.2492 257° West 401 461 40,000  Level Salt Lake Center
Fri 11:09:33 PM 38.6647 -114.3886 257° West 404 465 40,000  Level Salt Lake Center
Fri 11:10:35 PM 38.6389 -114.5278 257° West 405 466 40,000  Level Salt Lake Center
Fri 11:11:36 PM 38.6144 -114.6661 257° West 402 463 40,000  Level Salt Lake Center
Fri 11:12:37 PM 38.5889 -114.8003 256° West 393 452 40,000  Level Salt Lake Center
Fri 11:13:39 PM 38.5639 -114.9339 257° West 389 448 40,000  Level Salt Lake Center
Fri 11:14:40 PM 38.5397 -115.0683 257° West 390 449 40,000  Level Salt Lake Center
Fri 11:15:41 PM 38.5144 -115.2036 257° West 392 451 40,000  Level Salt Lake Center
Fri 11:16:43 PM 38.4872 -115.3458 256° West 393 452 40,000  Level Salt Lake Center
Fri 11:17:44 PM 38.4617 -115.4828 257° West 397 457 40,000  Level Salt Lake Center
Fri 11:18:45 PM 38.4322 -115.6164 254° West 393 452 40,000  Level Salt Lake Center
Fri 11:19:47 PM 38.3822 -115.7686 247° West 389 448 40,000  Level Salt Lake Center
Fri 11:20:48 PM 38.3425 -115.8964 248° West 389 448 40,000  Level Salt Lake Center
Fri 11:21:49 PM 38.3022 -116.0267 249° West 393 452 40,000  Level Salt Lake Center
Fri 11:22:50 PM 38.2606 -116.1569 248° West 399 459 40,000  Level Salt Lake Center
Fri 11:23:52 PM 38.2189 -116.2894 248° West 402 463 40,000  Level Salt Lake Center
Fri 11:24:53 PM 38.1767 -116.4186 247° West 397 457 40,000  Level Salt Lake Center
Fri 11:25:15 PM 38.1614 -116.4711 250° West 397 457 40,000  Level Oakland Center
Fri 11:26:17 PM 38.1194 -116.6025 248° West 398 458 40,000  Level Oakland Center
Fri 11:26:56 PM 38.0931 -116.6814 247° West 401 461 40,000  Level Salt Lake Center
Fri 11:27:57 PM 38.0506 -116.8139 248° West 403 464 40,000  Level Salt Lake Center
Fri 11:28:58 PM 38.0072 -116.9456 247° West 401 461 40,000  Level Salt Lake Center
Fri 11:29:20 PM 37.9900 -116.9983 248° West 400 460 40,000  Level Oakland Center
Fri 11:30:21 PM 37.9461 -117.1317 247° West 402 463 40,000  Level Oakland Center
Fri 11:31:22 PM 37.9028 -117.2631 247° West 399 459 40,000  Level Oakland Center
Fri 11:32:23 PM 37.8617 -117.3922 248° West 395 455 40,000  Level Oakland Center
Fri 11:33:24 PM 37.8189 -117.5211 247° West 394 453 40,000 -443 Level Oakland Center
Fri 11:34:25 PM 37.7756 -117.6494 247° West 395 455 39,100 -885 Descending Oakland Center
Fri 11:35:26 PM 37.7319 -117.7822 247° West 412 474 38,200 -885 Descending Oakland Center
Fri 11:36:27 PM 37.6881 -117.9131 247° West 406 467 37,300 -984 Descending Oakland Center
Fri 11:37:28 PM 37.6478 -118.0331 247° West 377 434 36,200 -984 Descending Oakland Center
Fri 11:38:29 PM 37.6072 -118.1561 247° West 379 436 35,300 -1,033 Descending Oakland Center
Fri 11:39:30 PM 37.5564 -118.3044 247° West 383 441 34,100 -1,041 Descending Oakland Center
Fri 11:40:30 PM 37.5125 -118.4297 246° West 390 449 33,200 -942 Descending Oakland Center
Fri 11:41:31 PM 37.4675 -118.5572 246° West 395 455 32,200 -984 Descending Oakland Center
Fri 11:42:32 PM 37.4242 -118.6853 247° West 398 458 31,200 -1,082 Descending Oakland Center
Fri 11:43:33 PM 37.3867 -118.8125 250° West 378 435 30,000 -689 Descending Oakland Center
Fri 11:44:34 PM 37.3731 -118.9386 262° West 366 421 29,800 -590 Descending Oakland Center
Fri 11:45:35 PM 37.3611 -119.0644 263° West 365 420 28,800 -984 Descending Oakland Center
Fri 11:46:36 PM 37.3483 -119.1956 263° West 385 443 27,800 -984 Descending Oakland Center
Fri 11:47:37 PM 37.3358 -119.3236 263° West 367 422 26,800 -984 Descending Oakland Center
Fri 11:48:38 PM 37.3231 -119.4506 263° West 367 422 25,800 -992 Descending Oakland Center
Fri 11:49:38 PM 37.3100 -119.5739 262° West 361 415 24,800 -1,041 Descending Oakland Center
Fri 11:50:39 PM 37.2961 -119.6981 262° West 359 413 23,700 -1,082 Descending Oakland Center
Fri 11:51:40 PM 37.2803 -119.8411 262° West 361 415 22,600 -1,033 Descending Oakland Center
Fri 11:52:41 PM 37.2661 -119.9636 262° West 350 403 21,600 -984 Descending Oakland Center
Fri 11:53:42 PM 37.2528 -120.0847 262° West 349 402 20,600 -984 Descending Oakland Center
Fri 11:54:43 PM 37.2386 -120.2039 262° West 348 400 19,600 -992 Descending Oakland Center
Fri 11:55:43 PM 37.2261 -120.3231 263° West 346 398 18,600 -1,021 Descending Oakland Center
Fri 11:56:17 PM 37.2167 -120.3833 259° West 342 394 18,000 -1,149 Descending Northern Cal TRACON
Fri 11:57:17 PM 37.2000 -120.5000 260° West 400 460 16,800 -1,700 Descending Northern Cal TRACON
Fri 11:58:17 PM 37.1667 -120.6167 250° West 342 394 14,600 -1,900 Descending Northern Cal TRACON
Fri 11:59:17 PM 37.1500 -120.7333 260° West 322 371 13,000 -1,300 Descending Northern Cal TRACON
Sat 12:00:17 AM 37.1500 -120.8333 270° West 309 356 12,000 -923 Descending Northern Cal TRACON
Sat 12:00:48 AM 37.1608 -120.8825 285° West 291 335 11,600 -978 Descending Oakland Center
Sat 12:01:49 AM 37.1608 -120.9928 270° West 311 358 10,500 -836 Descending Oakland Center
Sat 12:02:50 AM 37.1614 -121.0939 270° West 296 341 9,900 -248 Descending Oakland Center
Sat 12:03:50 AM 37.1619 -121.1850 270° West 270 311 10,000 50 Climbing Oakland Center
Sat 12:04:51 AM 37.1631 -121.2775 271° West 265 305 10,000  Level Oakland Center
Sat 12:05:52 AM 37.1633 -121.3700 270° West 265 305 10,000 -1,131 Level Oakland Center
Sat 12:06:53 AM 37.1633 -121.4622 270° West 264 304 7,700 -1,820 Descending Oakland Center
Sat 12:07:54 AM 37.1631 -121.5525 270° West 261 300 6,300 -1,082 Descending Oakland Center
Sat 12:08:55 AM 37.1614 -121.6364 269° West 239 275 5,500 -590 Descending Oakland Center
Sat 12:09:56 AM 37.1606 -121.6992 269° West 208 239 5,100 -541 Descending Oakland Center
Sat 12:10:57 AM 37.1858 -121.7403 308° West 180 207 4,400 -787 Descending Oakland Center
Sat 12:11:58 AM 37.2214 -121.7764 321° Northwest 170 196 3,500 -885 Descending Oakland Center
Sat 12:12:59 AM 37.2542 -121.8119 319° Northwest 164 189 2,600 -836 Descending Oakland Center
Sat 12:14:00 AM 37.2894 -121.8489 320° Northwest 149 171 1,800 -738 Descending Oakland Center
Sat 12:15:01 AM 37.3167 -121.8756 322° Northwest 135 155 1,100 -689 Descending Oakland Center
Sat 12:16:02 AM 37.3439 -121.9067 318° Northwest 132 152 400 -689 Descending Oakland Center
Sat 12:18:00 AM 37.3500 -121.9167 North  Level FlightAware Approximate

Login

Don't have an account? Register now (free) for customized features, flight alerts, and more!